Decoded Metar for LEVT (VITORIA in SPAIN) (IATA:VIT) | Meteo·Mobile Aviation Weather
aviador You're here:

LEVT Decoded Metar

VITORIA in SPAIN
Report Time2018-12-10 10:00:00
UTC Time2018-12-10 10:27:16
Flight Rules vfr VFR
WindCalm
Visibility9999 m
Phenomena:N/A
Clouds:Few 020 Hf
Broken 030 Hf
Expected CloudBase > 800 ft AGL from Temp-Dew spread
Ceiling3,000 ft
Temp08°C (ISA -4)
Dew Point06°C (87% RH)
AAT7.1°C
QNH1033 hPa
Density Alt689 ft
Elevation1,670 ft
Report Wrong Elevation
Raw Report
LEVT 101000Z 00000KT 9999 FEW020 BKN030 08/06 Q1033=

Extra information for LEVT:More info

Metar Taf Metar & Taf Last 4 Metars F.Rules Stats Wind Profile Meteogram Temp Stats Airport Information Weather charts Add Link Nearby VenuesMetar ALERT Operation Metar Decoded Social comments